createdAt,value
2023-01-26T00:02:11.640Z,99663.59
2023-01-26T00:04:38.342Z,99661.63
2023-01-26T00:07:05.113Z,99652.94
2023-01-26T00:09:31.771Z,99651.97
2023-01-26T00:11:58.488Z,99651.06
2023-01-26T00:14:25.167Z,99643.41
2023-01-26T00:16:53.852Z,99643.69
2023-01-26T00:19:20.510Z,99648.97
2023-01-26T00:21:47.249Z,99647.31
2023-01-26T00:24:13.997Z,99643.81
2023-01-26T00:26:40.897Z,99642.94
2023-01-26T00:29:07.514Z,99644.81
2023-01-26T00:31:34.278Z,99647.38
2023-01-26T00:34:00.950Z,99647.31
2023-01-26T00:36:28.592Z,99645.53
2023-01-26T00:38:55.267Z,99644.19
2023-01-26T00:41:40.892Z,99638.97
2023-01-26T00:44:07.762Z,99631.00
2023-01-26T00:46:34.538Z,99623.19
2023-01-26T00:49:01.248Z,99629.97
2023-01-26T00:51:28.153Z,99624.69
2023-01-26T00:53:55.059Z,99629.69
2023-01-26T00:56:22.147Z,99629.63
2023-01-26T00:58:48.789Z,99618.28
2023-01-26T01:01:15.626Z,99619.16
2023-01-26T01:03:42.680Z,99619.00
2023-01-26T01:06:09.735Z,99625.97
2023-01-26T01:08:36.566Z,99620.78
2023-01-26T01:11:09.473Z,99615.59
2023-01-26T01:13:36.388Z,99625.19
2023-01-26T01:16:08.283Z,99626.13
2023-01-26T01:18:35.774Z,99625.41
2023-01-26T01:21:09.930Z,99621.91
2023-01-26T01:23:37.577Z,99627.78
2023-01-26T01:26:05.473Z,99619.88
2023-01-26T01:28:33.452Z,99618.28
2023-01-26T01:31:00.274Z,99615.69
2023-01-26T01:33:26.946Z,99617.75
2023-01-26T01:36:01.625Z,99622.13
2023-01-26T01:38:28.582Z,99624.50
2023-01-26T01:40:56.542Z,99619.16
2023-01-26T01:43:27.499Z,99622.53
2023-01-26T01:45:55.346Z,99620.63
2023-01-26T01:48:29.483Z,99617.31
2023-01-26T01:51:00.546Z,99611.97
2023-01-26T01:53:35.955Z,99604.91
2023-01-26T01:56:07.551Z,99602.31
2023-01-26T01:58:39.947Z,99602.50
2023-01-26T02:01:06.924Z,99594.81
2023-01-26T02:03:34.891Z,99588.63
2023-01-26T02:06:18.432Z,99584.56
2023-01-26T02:08:48.261Z,99583.66
2023-01-26T02:11:18.048Z,99577.44
2023-01-26T02:13:47.418Z,99568.09
2023-01-26T02:16:14.129Z,99584.56
2023-01-26T02:18:40.838Z,99575.03
2023-01-26T02:21:11.194Z,99575.22
2023-01-26T02:24:06.053Z,99567.44
2023-01-26T02:26:34.799Z,99565.56
2023-01-26T02:29:03.034Z,99561.28
2023-01-26T02:31:30.723Z,99556.97
2023-01-26T02:33:57.739Z,99544.69
2023-01-26T02:36:29.938Z,99542.13
2023-01-26T02:38:56.577Z,99550.00
2023-01-26T02:41:41.709Z,99540.44
2023-01-26T02:44:10.451Z,99532.53
2023-01-26T02:46:37.139Z,99533.53
2023-01-26T02:49:22.534Z,99530.13
2023-01-26T02:51:49.370Z,99533.59
2023-01-26T02:54:35.936Z,99540.53
2023-01-26T02:57:02.564Z,99537.88
2023-01-26T02:59:29.261Z,99533.41
2023-01-26T03:01:58.288Z,99529.13
2023-01-26T03:04:25.200Z,99528.22
2023-01-26T03:06:51.845Z,99527.41
2023-01-26T03:09:18.502Z,99530.81
2023-01-26T03:11:45.247Z,99529.94
2023-01-26T03:14:13.879Z,99516.97
2023-01-26T03:16:41.406Z,99513.38
2023-01-26T03:19:30.321Z,99511.59
2023-01-26T03:22:15.422Z,99509.13
2023-01-26T03:25:01.026Z,99504.13
2023-01-26T03:27:29.170Z,99504.00
2023-01-26T03:29:57.259Z,99508.28
2023-01-26T03:32:25.017Z,99503.00
2023-01-26T03:34:51.841Z,99502.13
2023-01-26T03:37:22.713Z,99499.66
2023-01-26T03:40:09.488Z,99502.19
2023-01-26T03:42:55.781Z,99499.75
2023-01-26T03:45:41.146Z,99497.88
2023-01-26T03:48:28.493Z,99496.91
2023-01-26T03:51:13.916Z,99494.47
2023-01-26T03:53:59.121Z,99497.19
2023-01-26T03:56:25.847Z,99505.75
2023-01-26T03:58:55.002Z,99502.25
2023-01-26T04:01:27.675Z,99502.44
2023-01-26T04:04:15.841Z,99501.72
2023-01-26T04:07:03.420Z,99502.75
2023-01-26T04:09:30.348Z,99499.28
2023-01-26T04:11:57.201Z,99497.69
2023-01-26T04:14:49.362Z,99502.13
2023-01-26T04:17:35.758Z,99505.56
2023-01-26T04:20:21.004Z,99499.38
2023-01-26T04:22:47.639Z,99501.88
2023-01-26T04:25:16.945Z,99498.47
2023-01-26T04:27:43.863Z,99491.56
2023-01-26T04:30:13.394Z,99483.66
2023-01-26T04:32:40.390Z,99490.63
2023-01-26T04:35:08.262Z,99481.91
2023-01-26T04:37:35.214Z,99478.34
2023-01-26T04:40:02.179Z,99479.25
2023-01-26T04:42:28.889Z,99478.34
2023-01-26T04:44:55.741Z,99478.47
2023-01-26T04:47:23.084Z,99475.91
2023-01-26T04:49:49.891Z,99480.59
2023-01-26T04:52:16.674Z,99472.84
2023-01-26T04:54:46.055Z,99479.69
2023-01-26T04:57:12.702Z,99475.25
2023-01-26T04:59:39.370Z,99482.22
2023-01-26T05:02:06.099Z,99472.56
2023-01-26T05:04:32.761Z,99473.44
2023-01-26T05:06:59.404Z,99476.38
2023-01-26T05:09:26.165Z,99473.03
2023-01-26T05:11:52.763Z,99474.63
2023-01-26T05:14:19.456Z,99471.59
2023-01-26T05:16:46.194Z,99472.25
2023-01-26T05:19:12.991Z,99481.84
2023-01-26T05:21:39.614Z,99479.19
2023-01-26T05:24:06.913Z,99477.44
2023-01-26T05:26:33.595Z,99486.19
2023-01-26T05:29:00.215Z,99486.13
2023-01-26T05:31:26.862Z,99480.78
2023-01-26T05:33:53.565Z,99475.56
2023-01-26T05:36:20.215Z,99479.97
2023-01-26T05:38:47.485Z,99489.63
2023-01-26T05:41:14.320Z,99487.97
2023-01-26T05:43:41.070Z,99491.31
2023-01-26T05:46:07.723Z,99487.97
2023-01-26T05:48:34.532Z,99487.16
2023-01-26T05:51:03.801Z,99491.50
2023-01-26T05:53:30.577Z,99488.88
2023-01-26T05:55:57.307Z,99494.06
2023-01-26T05:58:23.934Z,99491.53
2023-01-26T06:00:50.654Z,99501.88
2023-01-26T06:03:17.319Z,99501.88
2023-01-26T06:05:44.009Z,99506.34
2023-01-26T06:08:10.667Z,99510.53
2023-01-26T06:10:37.431Z,99502.69
2023-01-26T06:13:04.098Z,99504.31
2023-01-26T06:15:30.785Z,99507.94
2023-01-26T06:17:57.472Z,99497.53
2023-01-26T06:20:24.141Z,99501.84
2023-01-26T06:22:50.787Z,99494.06
2023-01-26T06:25:17.413Z,99508.72
2023-01-26T06:27:44.055Z,99498.22
2023-01-26T06:30:11.482Z,99506.16
2023-01-26T06:32:38.239Z,99504.38
2023-01-26T06:35:06.702Z,99507.78
2023-01-26T06:37:33.679Z,99499.13
2023-01-26T06:40:00.370Z,99497.78
2023-01-26T06:42:27.030Z,99500.88
2023-01-26T06:44:53.690Z,99502.47
2023-01-26T06:47:20.350Z,99502.47
2023-01-26T06:49:47.019Z,99499.88
2023-01-26T06:52:26.302Z,99499.13
2023-01-26T06:54:53.435Z,99501.75
2023-01-26T06:57:20.066Z,99497.53
2023-01-26T06:59:46.779Z,99496.53
2023-01-26T07:02:21.833Z,99500.03
2023-01-26T07:04:50.018Z,99503.44
2023-01-26T07:07:16.684Z,99498.25
2023-01-26T07:09:43.468Z,99500.75
2023-01-26T07:12:10.216Z,99498.97
2023-01-26T07:14:36.828Z,99505.00
2023-01-26T07:17:04.067Z,99515.28
2023-01-26T07:19:33.316Z,99517.19
2023-01-26T07:22:00.414Z,99521.72
2023-01-26T07:24:27.398Z,99516.59
2023-01-26T07:26:54.398Z,99513.94
2023-01-26T07:29:21.012Z,99516.47
2023-01-26T07:31:47.803Z,99517.19
2023-01-26T07:34:14.488Z,99524.31
2023-01-26T07:36:41.096Z,99518.91
2023-01-26T07:39:08.633Z,99523.09
2023-01-26T07:41:35.645Z,99522.97
2023-01-26T07:44:02.466Z,99529.84
2023-01-26T07:46:29.183Z,99527.53
2023-01-26T07:48:56.275Z,99534.41
2023-01-26T07:51:23.604Z,99532.72
2023-01-26T07:53:50.353Z,99532.97
2023-01-26T07:56:20.310Z,99530.25
2023-01-26T07:58:54.729Z,99525.84
2023-01-26T08:01:22.101Z,99528.41
2023-01-26T08:03:52.085Z,99527.63
2023-01-26T08:06:19.222Z,99529.25
2023-01-26T08:08:53.646Z,99538.59
2023-01-26T08:11:22.928Z,99534.28
2023-01-26T08:13:49.492Z,99536.91
2023-01-26T08:16:16.159Z,99542.09
2023-01-26T08:18:45.133Z,99539.63
2023-01-26T08:21:14.773Z,99540.53
2023-01-26T08:23:42.970Z,99540.53
2023-01-26T08:26:13.317Z,99544.97
2023-01-26T08:28:41.544Z,99538.78
2023-01-26T08:31:12.216Z,99541.25
2023-01-26T08:33:41.389Z,99533.56
2023-01-26T08:36:12.376Z,99542.13
2023-01-26T08:38:39.796Z,99536.06
2023-01-26T08:41:07.266Z,99535.34
2023-01-26T08:43:34.765Z,99545.72
2023-01-26T08:46:01.674Z,99544.81
2023-01-26T08:48:50.364Z,99540.34
2023-01-26T08:51:17.842Z,99548.19
2023-01-26T08:53:45.527Z,99545.50
2023-01-26T08:56:12.964Z,99550.69
2023-01-26T08:58:40.823Z,99543.84
2023-01-26T09:01:16.277Z,99543.25
2023-01-26T09:03:44.162Z,99553.63
2023-01-26T09:06:13.741Z,99558.75
2023-01-26T09:08:41.061Z,99562.19
2023-01-26T09:11:08.557Z,99570.03
2023-01-26T09:13:37.273Z,99568.22
2023-01-26T09:16:05.526Z,99554.25
2023-01-26T09:18:32.330Z,99558.75
2023-01-26T09:21:07.127Z,99556.09
2023-01-26T09:23:34.456Z,99554.19
2023-01-26T09:26:02.190Z,99556.09
2023-01-26T09:28:29.593Z,99559.66
2023-01-26T09:30:56.743Z,99560.31
2023-01-26T09:33:23.589Z,99560.44
2023-01-26T09:35:50.360Z,99557.06
2023-01-26T09:38:17.197Z,99556.22
2023-01-26T09:41:08.128Z,99554.50
2023-01-26T09:43:58.275Z,99559.84
2023-01-26T09:46:50.984Z,99558.00
2023-01-26T09:49:24.201Z,99544.97
2023-01-26T09:51:59.381Z,99541.38
2023-01-26T09:54:35.585Z,99543.81
2023-01-26T09:57:10.979Z,99547.19
2023-01-26T09:59:49.967Z,99553.09
2023-01-26T10:02:33.457Z,99548.75
2023-01-26T10:05:07.654Z,99550.34
2023-01-26T10:07:34.503Z,99548.72
2023-01-26T10:10:21.554Z,99548.81
2023-01-26T10:12:51.781Z,99552.50
2023-01-26T10:15:27.205Z,99548.84
2023-01-26T10:17:55.312Z,99545.38
2023-01-26T10:20:31.545Z,99548.91
2023-01-26T10:23:16.705Z,99547.00
2023-01-26T10:25:47.041Z,99544.25
2023-01-26T10:28:17.686Z,99532.97
2023-01-26T10:30:46.811Z,99539.31
2023-01-26T10:33:20.966Z,99531.63
2023-01-26T10:35:48.226Z,99533.56
2023-01-26T10:38:34.126Z,99532.53
2023-01-26T10:41:02.932Z,99534.75
2023-01-26T10:43:51.896Z,99529.50
2023-01-26T10:46:32.236Z,99530.28
2023-01-26T10:49:02.133Z,99520.88
2023-01-26T10:51:34.548Z,99523.50
2023-01-26T10:54:19.196Z,99519.59
2023-01-26T10:56:59.882Z,99523.44
2023-01-26T10:59:31.525Z,99518.91
2023-01-26T11:02:22.820Z,99511.81
2023-01-26T11:05:16.616Z,99505.34
2023-01-26T11:07:46.083Z,99505.94
2023-01-26T11:10:40.011Z,99503.16
2023-01-26T11:13:26.513Z,99489.41
2023-01-26T11:16:20.308Z,99498.13
2023-01-26T11:19:03.373Z,99502.59
2023-01-26T11:21:39.428Z,99495.56
2023-01-26T11:24:43.853Z,99497.06
2023-01-26T11:27:13.692Z,99496.84
2023-01-26T11:30:13.640Z,99494.28
2023-01-26T11:32:59.829Z,99487.47
2023-01-26T11:35:36.260Z,99484.81
2023-01-26T11:38:09.690Z,99481.19
2023-01-26T11:40:57.579Z,99476.72
2023-01-26T11:43:45.290Z,99461.97
2023-01-26T11:46:30.677Z,99459.38
2023-01-26T11:49:06.433Z,99456.69
2023-01-26T11:51:54.774Z,99459.09
2023-01-26T11:54:52.332Z,99462.41
2023-01-26T11:57:28.094Z,99447.78
2023-01-26T12:00:00.343Z,99444.28
2023-01-26T12:02:34.471Z,99449.31
2023-01-26T12:05:14.299Z,99449.25
2023-01-26T12:07:54.739Z,99436.22
2023-01-26T12:10:28.237Z,99435.38
2023-01-26T12:13:05.410Z,99429.47
2023-01-26T12:15:38.700Z,99425.94
2023-01-26T12:18:09.209Z,99422.34
2023-01-26T12:20:40.853Z,99424.72
2023-01-26T12:23:18.871Z,99411.84
2023-01-26T12:25:53.248Z,99400.22
2023-01-26T12:28:46.260Z,99405.19
2023-01-26T12:31:36.726Z,99406.94
2023-01-26T12:34:03.589Z,99401.75
2023-01-26T12:37:01.448Z,99399.06
2023-01-26T12:40:15.162Z,99399.88
2023-01-26T12:42:45.104Z,99398.13
2023-01-26T12:45:29.410Z,99396.28
2023-01-26T12:48:06.443Z,99393.53
2023-01-26T12:50:41.951Z,99396.09
2023-01-26T12:53:18.785Z,99395.28
2023-01-26T12:56:00.826Z,99396.25
2023-01-26T12:58:31.517Z,99391.97
2023-01-26T13:00:58.287Z,99384.00
2023-01-26T13:03:30.375Z,99381.28
2023-01-26T13:06:25.807Z,99380.44
2023-01-26T13:09:00.674Z,99385.63
2023-01-26T13:11:39.865Z,99389.03
2023-01-26T13:14:29.523Z,99382.56
2023-01-26T13:16:57.200Z,99389.31
2023-01-26T13:19:42.161Z,99391.19
2023-01-26T13:22:24.066Z,99387.59
2023-01-26T13:24:58.127Z,99383.22
2023-01-26T13:27:39.921Z,99378.69
2023-01-26T13:30:25.213Z,99384.56
2023-01-26T13:32:54.747Z,99384.38
2023-01-26T13:35:25.384Z,99387.75
2023-01-26T13:38:19.566Z,99382.47
2023-01-26T13:40:50.814Z,99385.09
2023-01-26T13:43:32.244Z,99381.75
2023-01-26T13:46:02.842Z,99386.75
2023-01-26T13:48:37.232Z,99387.66
2023-01-26T13:51:06.772Z,99389.38
2023-01-26T13:54:00.495Z,99383.28
2023-01-26T13:56:36.791Z,99392.13
2023-01-26T13:59:25.206Z,99389.81
2023-01-26T14:01:54.833Z,99384.44
2023-01-26T14:04:31.248Z,99386.97
2023-01-26T14:10:22.461Z,99391.16
2023-01-26T14:12:51.973Z,99386.53
2023-01-26T14:15:38.967Z,99392.56
2023-01-26T14:18:05.841Z,99396.84
2023-01-26T14:20:36.546Z,99394.31
2023-01-26T14:23:15.227Z,99400.41
2023-01-26T14:25:58.363Z,99398.63
2023-01-26T14:28:31.331Z,99403.84
2023-01-26T14:31:11.766Z,99414.25
2023-01-26T14:33:38.725Z,99414.66
2023-01-26T14:36:06.242Z,99417.16
2023-01-26T14:38:44.699Z,99422.25
2023-01-26T14:41:23.484Z,99415.94
2023-01-26T14:43:55.039Z,99420.78
2023-01-26T14:46:55.335Z,99409.75
2023-01-26T14:49:43.071Z,99420.03
2023-01-26T14:52:40.260Z,99413.06
2023-01-26T14:55:11.823Z,99424.31
2023-01-26T14:57:39.647Z,99419.13
2023-01-26T15:00:10.267Z,99422.56
2023-01-26T15:02:43.295Z,99416.72
2023-01-26T15:05:20.671Z,99415.97
2023-01-26T15:08:01.278Z,99422.03
2023-01-26T15:10:28.103Z,99411.47
2023-01-26T15:13:15.277Z,99424.47
2023-01-26T15:15:48.708Z,99416.56
2023-01-26T15:18:19.820Z,99417.75
2023-01-26T15:21:11.214Z,99413.25
2023-01-26T15:23:42.271Z,99409.75
2023-01-26T15:26:14.251Z,99406.59
2023-01-26T15:28:41.110Z,99401.41
2023-01-26T15:31:18.413Z,99407.41
2023-01-26T15:33:49.747Z,99408.13
2023-01-26T15:36:22.351Z,99412.69
2023-01-26T15:38:49.058Z,99417.91
2023-01-26T15:41:15.891Z,99420.69
2023-01-26T15:43:42.638Z,99412.19
2023-01-26T15:46:10.324Z,99413.09
2023-01-26T15:48:37.135Z,99414.66
2023-01-26T15:51:03.871Z,99416.72
2023-01-26T15:53:30.560Z,99420.34
2023-01-26T15:55:58.625Z,99421.19
2023-01-26T15:58:26.126Z,99419.25
2023-01-26T16:00:53.496Z,99427.66
2023-01-26T16:03:22.318Z,99431.09
2023-01-26T16:05:49.702Z,99434.19
2023-01-26T16:08:17.914Z,99428.81
2023-01-26T16:10:45.286Z,99428.81
2023-01-26T16:13:20.648Z,99421.56
2023-01-26T16:15:51.113Z,99424.00
2023-01-26T16:18:20.052Z,99411.69
2023-01-26T16:20:48.577Z,99415.63
2023-01-26T16:23:27.353Z,99405.41
2023-01-26T16:25:54.412Z,99403.38
2023-01-26T16:28:21.855Z,99405.75
2023-01-26T16:30:53.212Z,99411.78
2023-01-26T16:33:24.680Z,99413.44
2023-01-26T16:35:51.623Z,99405.56
2023-01-26T16:38:18.370Z,99411.53
2023-01-26T16:40:47.661Z,99413.78
2023-01-26T16:43:24.292Z,99410.28
2023-01-26T16:45:52.485Z,99410.84
2023-01-26T16:48:20.379Z,99409.13
2023-01-26T16:50:50.216Z,99408.09
2023-01-26T16:53:22.965Z,99412.38
2023-01-26T16:55:49.774Z,99419.38
2023-01-26T16:58:16.615Z,99419.97
2023-01-26T17:00:43.781Z,99416.53
2023-01-26T17:03:13.177Z,99422.53
2023-01-26T17:05:40.678Z,99417.63
2023-01-26T17:08:08.281Z,99425.44
2023-01-26T17:10:43.456Z,99424.66
2023-01-26T17:13:16.842Z,99416.00
2023-01-26T17:15:45.830Z,99419.38
2023-01-26T17:18:13.472Z,99421.06
2023-01-26T17:20:42.018Z,99421.91
2023-01-26T17:23:09.301Z,99422.66
2023-01-26T17:25:36.041Z,99418.13
2023-01-26T17:28:03.474Z,99419.03
2023-01-26T17:30:30.264Z,99406.00
2023-01-26T17:32:56.987Z,99412.03
2023-01-26T17:35:23.984Z,99417.19
2023-01-26T17:37:53.767Z,99417.25
2023-01-26T17:40:20.528Z,99411.97
2023-01-26T17:42:47.211Z,99421.41
2023-01-26T17:45:15.226Z,99412.72
2023-01-26T17:47:46.615Z,99411.19
2023-01-26T17:50:19.186Z,99412.88
2023-01-26T17:52:46.440Z,99421.38
2023-01-26T17:55:18.353Z,99415.47
2023-01-26T17:57:45.689Z,99421.38
2023-01-26T18:00:13.707Z,99421.53
2023-01-26T18:02:41.129Z,99423.94
2023-01-26T18:05:11.755Z,99425.69
2023-01-26T18:07:38.688Z,99425.88
2023-01-26T18:10:05.977Z,99430.97
2023-01-26T18:12:33.311Z,99423.97
2023-01-26T18:15:00.051Z,99427.56
2023-01-26T18:17:26.821Z,99434.28
2023-01-26T18:19:53.658Z,99424.69
2023-01-26T18:22:20.454Z,99426.59
2023-01-26T18:24:48.370Z,99424.06
2023-01-26T18:27:15.043Z,99425.06
2023-01-26T18:29:41.811Z,99420.56
2023-01-26T18:32:08.668Z,99418.75
2023-01-26T18:34:35.399Z,99418.69
2023-01-26T18:37:02.146Z,99422.03
2023-01-26T18:39:29.073Z,99420.41
2023-01-26T18:41:55.975Z,99416.91
2023-01-26T18:44:22.830Z,99420.41
2023-01-26T18:46:49.454Z,99422.09
2023-01-26T18:49:16.309Z,99416.09
2023-01-26T18:51:48.307Z,99416.50
2023-01-26T18:54:16.717Z,99414.69
2023-01-26T18:56:43.724Z,99407.53
2023-01-26T18:59:10.897Z,99411.91
2023-01-26T19:01:37.844Z,99416.09
2023-01-26T19:04:07.251Z,99403.41
2023-01-26T19:06:34.317Z,99407.41
2023-01-26T19:09:05.941Z,99405.81
2023-01-26T19:11:35.267Z,99402.25
2023-01-26T19:14:02.490Z,99399.78
2023-01-26T19:16:29.760Z,99408.53
2023-01-26T19:18:57.216Z,99410.88
2023-01-26T19:21:25.442Z,99412.66
2023-01-26T19:23:54.175Z,99411.75
2023-01-26T19:26:23.431Z,99413.47
2023-01-26T19:28:51.114Z,99414.47
2023-01-26T19:31:22.012Z,99412.09
2023-01-26T19:33:54.840Z,99405.84
2023-01-26T19:36:22.197Z,99408.47
2023-01-26T19:38:49.032Z,99406.59
2023-01-26T19:41:16.181Z,99396.09
2023-01-26T19:43:44.474Z,99403.94
2023-01-26T19:46:15.866Z,99406.50
2023-01-26T19:48:43.566Z,99402.84
2023-01-26T19:51:22.201Z,99407.03
2023-01-26T19:53:57.871Z,99398.47
2023-01-26T19:56:30.624Z,99408.75
2023-01-26T19:59:06.564Z,99400.09
2023-01-26T20:01:36.735Z,99399.16
2023-01-26T20:04:07.239Z,99395.03
2023-01-26T20:06:39.975Z,99396.94
2023-01-26T20:09:08.665Z,99398.81
2023-01-26T20:11:36.233Z,99405.50
2023-01-26T20:14:06.477Z,99399.34
2023-01-26T20:16:34.604Z,99400.06
2023-01-26T20:19:02.400Z,99401.78
2023-01-26T20:21:30.320Z,99405.97
2023-01-26T20:23:57.804Z,99404.19
2023-01-26T20:26:29.805Z,99406.69
2023-01-26T20:28:58.458Z,99405.72
2023-01-26T20:31:26.912Z,99413.63
2023-01-26T20:33:54.747Z,99415.31
2023-01-26T20:36:27.515Z,99412.88
2023-01-26T20:38:56.792Z,99412.06
2023-01-26T20:41:24.960Z,99419.94
2023-01-26T20:43:59.707Z,99414.75
2023-01-26T20:46:31.601Z,99419.88
2023-01-26T20:48:59.083Z,99409.47
2023-01-26T20:51:30.754Z,99418.91
2023-01-26T20:53:58.275Z,99414.47
2023-01-26T20:56:25.103Z,99422.22
2023-01-26T20:58:53.755Z,99417.84
2023-01-26T21:01:21.259Z,99422.28
2023-01-26T21:03:48.710Z,99416.19
2023-01-26T21:06:18.632Z,99416.31
2023-01-26T21:08:48.395Z,99410.28
2023-01-26T21:11:16.995Z,99409.34
2023-01-26T21:13:44.539Z,99405.09
2023-01-26T21:16:14.398Z,99411.00
2023-01-26T21:18:41.472Z,99410.06
2023-01-26T21:21:11.534Z,99409.22
2023-01-26T21:23:38.291Z,99409.13
2023-01-26T21:26:11.613Z,99408.22
2023-01-26T21:28:38.350Z,99409.03
2023-01-26T21:31:08.059Z,99409.13
2023-01-26T21:33:37.911Z,99412.53
2023-01-26T21:36:06.880Z,99395.22
2023-01-26T21:38:36.423Z,99396.91
2023-01-26T21:41:26.218Z,99407.44
2023-01-26T21:44:00.843Z,99402.13
2023-01-26T21:46:28.702Z,99397.81
2023-01-26T21:48:55.660Z,99397.78
2023-01-26T21:51:52.603Z,99394.19
2023-01-26T21:54:19.352Z,99396.66
2023-01-26T21:56:46.403Z,99398.34
2023-01-26T21:59:15.381Z,99388.00
2023-01-26T22:01:54.212Z,99394.94
2023-01-26T22:04:24.012Z,99400.00
2023-01-26T22:06:53.724Z,99398.44
2023-01-26T22:09:21.440Z,99401.00
2023-01-26T22:11:50.545Z,99403.50
2023-01-26T22:14:23.669Z,99403.28
2023-01-26T22:16:50.473Z,99408.50
2023-01-26T22:19:17.441Z,99399.97
2023-01-26T22:21:44.935Z,99403.31
2023-01-26T22:24:14.642Z,99407.47
2023-01-26T22:26:42.254Z,99404.00
2023-01-26T22:29:11.407Z,99405.56
2023-01-26T22:31:38.170Z,99408.50
2023-01-26T22:34:05.437Z,99409.19
2023-01-26T22:36:32.148Z,99408.50
2023-01-26T22:39:00.131Z,99404.19
2023-01-26T22:41:29.056Z,99404.19
2023-01-26T22:43:58.934Z,99405.88
2023-01-26T22:46:27.427Z,99404.13
2023-01-26T22:48:57.313Z,99401.50
2023-01-26T22:51:29.402Z,99409.16
2023-01-26T22:53:57.360Z,99413.44
2023-01-26T22:56:24.969Z,99413.44
2023-01-26T22:58:57.969Z,99408.13
2023-01-26T23:01:31.318Z,99412.56
2023-01-26T23:03:59.545Z,99415.22
2023-01-26T23:06:27.120Z,99409.91
2023-01-26T23:08:54.202Z,99406.50
2023-01-26T23:11:29.309Z,99409.81
2023-01-26T23:13:57.631Z,99401.53
2023-01-26T23:16:25.257Z,99405.72
2023-01-26T23:18:53.905Z,99409.31
2023-01-26T23:21:21.137Z,99408.31
2023-01-26T23:23:47.880Z,99409.38
2023-01-26T23:26:14.735Z,99411.97
2023-01-26T23:28:43.015Z,99413.69
2023-01-26T23:31:11.385Z,99415.22
2023-01-26T23:33:39.091Z,99404.81
2023-01-26T23:36:07.053Z,99406.69
2023-01-26T23:38:34.279Z,99407.47
2023-01-26T23:41:01.156Z,99413.44
2023-01-26T23:43:28.316Z,99408.31
2023-01-26T23:45:56.614Z,99398.97
2023-01-26T23:48:24.534Z,99405.00
2023-01-26T23:51:00.123Z,99404.00
2023-01-26T23:53:28.392Z,99400.59
2023-01-26T23:55:55.911Z,99405.81
2023-01-26T23:58:22.755Z,99404.88
